Time;durP1;ratioP1;P1;durP2;ratioP2;P2;SDS_P1;SDS_P2;PMS_P1;PMS_P2;Temp;Humidity;BMP_temperature;BMP_pressure;BME280_temperature;BME280_humidity;BME280_pressure;Samples;Min_cycle;Max_cycle;Signal;HPM_P1;HPM_P2
2022/03/07 00:00:17;;;;;;;16.52;11.30;;;20.70;59.80;;;;;;5095975;28;20066;-72
2022/03/07 00:02:43;;;;;;;15.25;9.68;;;20.60;60.00;;;;;;5096296;28;20042;-72
2022/03/07 00:05:09;;;;;;;14.15;9.60;;;20.70;60.10;;;;;;5096486;28;20103;-72
2022/03/07 00:07:35;;;;;;;20.50;12.27;;;20.70;59.80;;;;;;5095698;28;20055;-72
2022/03/07 00:10:02;;;;;;;22.92;14.00;;;20.70;59.80;;;;;;5095655;28;20096;-71
2022/03/07 00:12:28;;;;;;;28.30;17.67;;;20.60;59.50;;;;;;5094420;28;20028;-72
2022/03/07 00:14:54;;;;;;;21.13;13.05;;;20.60;59.50;;;;;;5095568;28;20532;-71
2022/03/07 00:17:20;;;;;;;13.40;9.63;;;20.80;59.40;;;;;;5096107;28;20041;-72
2022/03/07 00:19:46;;;;;;;12.60;8.38;;;20.70;59.50;;;;;;5096071;28;20063;-72
2022/03/07 00:22:12;;;;;;;11.68;9.02;;;20.60;59.50;;;;;;5096362;28;20385;-72
2022/03/07 00:24:38;;;;;;;44.83;34.60;;;20.50;59.60;;;;;;5096555;28;20040;-72
2022/03/07 00:27:04;;;;;;;26.15;19.83;;;20.70;59.90;;;;;;5093967;28;20040;-72
2022/03/07 00:29:31;;;;;;;23.85;17.20;;;20.60;59.80;;;;;;5092926;28;20048;-71
2022/03/07 00:31:58;;;;;;;20.02;13.90;;;20.70;59.60;;;;;;5077618;28;20033;-72
2022/03/07 00:34:25;;;;;;;12.57;8.27;;;20.70;59.50;;;;;;5077748;28;20047;-72
2022/03/07 00:36:51;;;;;;;12.27;9.50;;;20.70;59.40;;;;;;5094500;28;20035;-72
2022/03/07 00:39:17;;;;;;;13.98;8.40;;;20.70;59.30;;;;;;5094646;28;20036;-72
2022/03/07 00:41:43;;;;;;;12.23;8.45;;;20.70;59.20;;;;;;5091935;28;20096;-72
2022/03/07 00:44:09;;;;;;;14.15;8.88;;;20.80;59.10;;;;;;5077636;28;20036;-72
2022/03/07 00:46:38;;;;;;;11.52;8.85;;;20.70;59.10;;;;;;5094356;28;20040;-72
2022/03/07 00:49:04;;;;;;;17.88;9.57;;;20.80;59.00;;;;;;5094690;28;20090;-72
2022/03/07 00:51:30;;;;;;;18.90;10.70;;;20.70;58.80;;;;;;5073944;28;20108;-72
2022/03/07 00:53:57;;;;;;;18.08;12.10;;;20.80;58.70;;;;;;5094110;28;20052;-72
2022/03/07 00:56:23;;;;;;;21.08;12.68;;;20.80;58.90;;;;;;5078244;28;20128;-72
2022/03/07 00:58:49;;;;;;;23.13;12.82;;;20.70;59.10;;;;;;5079972;28;20065;-71
2022/03/07 01:01:16;;;;;;;16.85;11.73;;;20.80;59.20;;;;;;5099178;28;20040;-71
2022/03/07 01:03:42;;;;;;;18.63;10.52;;;20.60;59.30;;;;;;5099507;28;20044;-72
2022/03/07 01:06:09;;;;;;;16.27;10.63;;;20.60;59.50;;;;;;5082301;28;20040;-72
2022/03/07 01:08:34;;;;;;;14.88;9.95;;;20.70;59.80;;;;;;5098602;28;20044;-73
2022/03/07 01:11:01;;;;;;;19.00;11.85;;;20.50;60.00;;;;;;5098059;28;20058;-73
2022/03/07 01:13:27;;;;;;;17.55;10.48;;;20.50;59.80;;;;;;5075960;28;20045;-72
2022/03/07 01:15:53;;;;;;;16.13;10.70;;;20.60;59.70;;;;;;5084502;28;20089;-72
2022/03/07 01:18:20;;;;;;;14.00;9.02;;;20.40;59.50;;;;;;5082174;28;20040;-71
2022/03/07 01:20:48;;;;;;;15.68;10.13;;;20.40;59.30;;;;;;5098887;28;20040;-73
2022/03/07 01:23:14;;;;;;;15.60;10.05;;;20.50;59.10;;;;;;5082067;28;20047;-72
2022/03/07 01:25:40;;;;;;;15.68;10.65;;;20.50;58.80;;;;;;5098793;28;20060;-73
2022/03/07 01:28:06;;;;;;;20.10;10.38;;;20.50;58.50;;;;;;5097203;28;20045;-72
2022/03/07 01:30:33;;;;;;;11.15;7.63;;;20.50;58.20;;;;;;5081290;28;20070;-72
2022/03/07 01:33:00;;;;;;;15.90;9.68;;;20.50;57.90;;;;;;5099123;28;20041;-72
2022/03/07 01:35:26;;;;;;;15.43;9.77;;;20.50;57.70;;;;;;5081666;28;20036;-73
2022/03/07 01:37:52;;;;;;;16.08;8.95;;;20.50;57.90;;;;;;5099163;28;20127;-73
2022/03/07 01:40:19;;;;;;;13.90;8.98;;;20.50;57.70;;;;;;5081670;28;20033;-72
2022/03/07 01:42:45;;;;;;;14.95;9.00;;;20.50;57.60;;;;;;5093690;28;20051;-72
2022/03/07 01:45:16;;;;;;;16.17;9.13;;;20.50;57.50;;;;;;5079323;28;20037;-73
2022/03/07 01:47:42;;;;;;;13.35;9.65;;;20.60;57.20;;;;;;5081580;28;20044;-73
2022/03/07 01:50:12;;;;;;;16.58;10.52;;;20.50;57.20;;;;;;5098199;28;20055;-72
2022/03/07 01:52:43;;;;;;;32.22;15.38;;;20.50;56.90;;;;;;5079809;28;20033;-72
2022/03/07 01:55:11;;;;;;;33.67;16.63;;;20.50;56.80;;;;;;5093340;28;20028;-73
2022/03/07 01:57:44;;;;;;;;;;;20.60;56.70;;;;;;5080338;28;20041;-73
2022/03/07 02:00:19;;;;;;;20.05;10.40;;;20.60;56.70;;;;;;5080853;28;19919;-73
2022/03/07 02:02:45;;;;;;;18.55;10.50;;;20.60;56.60;;;;;;5098102;28;20044;-72
2022/03/07 02:05:16;;;;;;;11.38;8.25;;;20.60;56.50;;;;;;5080997;28;20044;-72
2022/03/07 02:07:46;;;;;;;18.50;9.68;;;20.50;56.50;;;;;;5082736;28;20055;-72
2022/03/07 02:10:14;;;;;;;14.20;8.32;;;20.50;56.50;;;;;;5080545;28;20063;-72
2022/03/07 02:12:42;;;;;;;17.30;9.77;;;20.50;56.60;;;;;;5075764;28;20032;-72
2022/03/07 02:15:09;;;;;;;15.10;9.65;;;20.40;56.60;;;;;;5077805;28;20052;-72
2022/03/07 02:17:37;;;;;;;16.10;10.30;;;20.40;56.60;;;;;;5080716;28;20063;-72
2022/03/07 02:20:05;;;;;;;17.92;10.90;;;20.40;56.60;;;;;;5080891;28;20040;-73
2022/03/07 02:22:31;;;;;;;16.10;10.35;;;20.40;56.50;;;;;;5097675;28;20029;-72
2022/03/07 02:24:57;;;;;;;17.27;11.18;;;20.30;56.50;;;;;;5098243;28;20039;-72
2022/03/07 02:27:24;;;;;;;20.63;11.82;;;20.30;56.60;;;;;;5077253;28;20045;-72
2022/03/07 02:29:51;;;;;;;24.73;12.48;;;20.30;56.60;;;;;;5080860;28;20071;-72
2022/03/07 02:32:23;;;;;;;22.13;11.10;;;20.30;56.50;;;;;;5079868;28;20175;-71
2022/03/07 02:34:49;;;;;;;21.13;12.38;;;20.20;56.50;;;;;;5097607;28;20041;-72
2022/03/07 02:37:17;;;;;;;16.25;10.63;;;20.20;56.20;;;;;;5079358;28;20063;-72
2022/03/07 02:39:48;;;;;;;14.32;9.80;;;20.30;56.20;;;;;;5113630;28;20056;-73
2022/03/07 02:42:14;;;;;;;20.50;11.15;;;20.30;56.10;;;;;;5075673;28;20101;-72
2022/03/07 02:44:41;;;;;;;18.42;11.13;;;20.30;55.90;;;;;;5080618;28;20044;-72
2022/03/07 02:47:13;;;;;;;15.10;10.77;;;20.30;55.90;;;;;;5079527;28;20058;-72
2022/03/07 02:49:39;;;;;;;17.55;12.40;;;20.30;55.90;;;;;;5096822;28;20032;-72
2022/03/07 02:52:09;;;;;;;18.85;13.10;;;20.30;55.90;;;;;;5080128;28;20040;-72
2022/03/07 02:54:36;;;;;;;21.92;12.93;;;20.10;55.90;;;;;;5097169;28;20052;-73
2022/03/07 02:57:02;;;;;;;18.13;12.02;;;20.20;55.90;;;;;;5095882;28;20079;-72
2022/03/07 02:59:28;;;;;;;20.42;12.07;;;20.20;55.80;;;;;;5078252;28;20041;-72
2022/03/07 03:01:55;;;;;;;20.38;11.77;;;20.20;55.70;;;;;;5077252;28;20072;-73
2022/03/07 03:04:21;;;;;;;22.90;13.07;;;20.20;55.60;;;;;;5077609;28;20041;-72
2022/03/07 03:06:47;;;;;;;23.00;13.02;;;20.20;55.50;;;;;;5069810;28;20051;-72
2022/03/07 03:09:13;;;;;;;23.00;13.05;;;20.20;55.40;;;;;;5097164;28;20040;-73
2022/03/07 03:11:39;;;;;;;22.42;13.48;;;20.30;55.40;;;;;;5099292;28;20036;-72
2022/03/07 03:14:06;;;;;;;19.73;12.10;;;20.30;55.20;;;;;;5093770;28;20072;-73
2022/03/07 03:16:33;;;;;;;18.45;11.30;;;20.20;55.10;;;;;;5096947;28;20036;-72
2022/03/07 03:18:59;;;;;;;22.85;13.05;;;20.30;55.10;;;;;;5096599;28;20059;-73
2022/03/07 03:21:25;;;;;;;19.40;13.32;;;20.40;55.10;;;;;;5096663;28;20028;-73
2022/03/07 03:23:52;;;;;;;19.48;13.40;;;20.40;55.00;;;;;;5096935;28;20074;-73
2022/03/07 03:26:18;;;;;;;19.73;12.50;;;20.30;55.00;;;;;;5095991;28;20048;-73
2022/03/07 03:28:44;;;;;;;19.15;12.38;;;20.30;55.10;;;;;;5096675;28;20047;-72
2022/03/07 03:31:11;;;;;;;19.98;12.13;;;20.30;55.20;;;;;;5096175;28;20096;-73
2022/03/07 03:33:42;;;;;;;20.92;12.20;;;20.30;55.20;;;;;;5096996;28;20046;-72
2022/03/07 03:36:08;;;;;;;19.23;12.27;;;20.20;55.20;;;;;;5095641;28;20041;-72
2022/03/07 03:38:34;;;;;;;22.75;13.32;;;20.10;55.30;;;;;;5097031;28;20107;-72
2022/03/07 03:41:01;;;;;;;23.80;13.05;;;20.20;55.30;;;;;;5096506;28;20041;-72
2022/03/07 03:43:27;;;;;;;19.67;11.13;;;20.20;55.40;;;;;;5090374;28;20044;-73
2022/03/07 03:45:53;;;;;;;18.50;11.77;;;20.00;55.50;;;;;;5078996;28;20037;-72
2022/03/07 03:48:19;;;;;;;17.73;12.38;;;20.20;55.60;;;;;;5096464;28;20037;-72
2022/03/07 03:50:45;;;;;;;22.63;12.07;;;20.10;55.60;;;;;;5096486;28;20033;-72
2022/03/07 03:53:11;;;;;;;22.83;12.05;;;20.10;55.60;;;;;;5096589;28;20036;-72
2022/03/07 03:55:37;;;;;;;19.17;11.95;;;20.10;55.70;;;;;;5090873;28;20036;-72
2022/03/07 03:58:04;;;;;;;83.05;40.17;;;20.10;55.70;;;;;;5069072;28;20036;-72
2022/03/07 04:00:30;;;;;;;127.85;63.03;;;20.00;55.70;;;;;;5095372;28;20040;-73
2022/03/07 04:02:56;;;;;;;68.25;34.20;;;20.00;55.80;;;;;;5075729;28;20041;-72
2022/03/07 04:05:22;;;;;;;37.75;19.15;;;20.10;55.80;;;;;;5078121;28;20060;-72
2022/03/07 04:07:48;;;;;;;74.68;37.10;;;20.00;55.70;;;;;;5096513;28;20075;-72
2022/03/07 04:10:15;;;;;;;41.53;23.05;;;20.00;55.80;;;;;;5081437;28;20043;-72
2022/03/07 04:12:42;;;;;;;43.15;22.67;;;19.90;55.90;;;;;;5095361;28;20062;-73
2022/03/07 04:15:09;;;;;;;26.63;15.63;;;19.90;55.80;;;;;;5095408;28;20037;-71
2022/03/07 04:17:42;;;;;;;17.77;10.15;;;19.90;55.80;;;;;;5096065;28;20041;-72
2022/03/07 04:20:09;;;;;;;17.50;10.20;;;19.90;55.60;;;;;;5096032;28;20123;-73
2022/03/07 04:22:37;;;;;;;20.10;10.98;;;20.10;55.50;;;;;;5096129;28;20090;-73
2022/03/07 04:25:04;;;;;;;16.63;10.88;;;20.10;55.20;;;;;;5096268;28;20108;-73
2022/03/07 04:27:30;;;;;;;22.48;11.13;;;19.90;55.00;;;;;;5095298;28;20082;-72
2022/03/07 04:29:57;;;;;;;19.30;10.88;;;20.10;55.00;;;;;;5097803;28;20112;-72
2022/03/07 04:32:24;;;;;;;19.48;12.63;;;20.10;54.80;;;;;;5098602;28;20041;-72
2022/03/07 04:34:51;;;;;;;20.38;12.20;;;20.10;54.70;;;;;;5100160;28;20072;-72
2022/03/07 04:37:17;;;;;;;20.35;12.68;;;20.10;54.80;;;;;;5099595;28;20040;-73
2022/03/07 04:39:43;;;;;;;21.10;12.20;;;20.20;54.50;;;;;;5099800;28;20051;-73
2022/03/07 04:42:10;;;;;;;22.80;12.68;;;20.30;54.50;;;;;;5099740;28;20036;-72
2022/03/07 04:44:36;;;;;;;20.38;12.50;;;20.20;54.20;;;;;;5100230;28;20194;-72
2022/03/07 04:47:02;;;;;;;25.27;13.27;;;20.30;54.30;;;;;;5099489;28;20041;-72
2022/03/07 04:49:35;;;;;;;23.77;14.60;;;20.40;54.10;;;;;;5099773;28;20047;-72
2022/03/07 04:52:02;;;;;;;21.80;13.90;;;20.30;54.20;;;;;;5098840;28;20037;-73
2022/03/07 04:54:28;;;;;;;29.05;15.35;;;20.30;54.20;;;;;;5099205;28;20096;-72
2022/03/07 04:56:54;;;;;;;27.67;14.13;;;20.30;54.30;;;;;;5099640;28;20043;-72
2022/03/07 04:59:20;;;;;;;32.40;17.38;;;20.30;54.30;;;;;;5084049;28;20036;-73
2022/03/07 05:01:46;;;;;;;28.58;15.77;;;20.40;54.20;;;;;;5078915;28;20064;-73
2022/03/07 05:04:12;;;;;;;35.58;16.25;;;20.40;54.20;;;;;;5095328;28;20052;-72
2022/03/07 05:06:39;;;;;;;28.35;16.15;;;20.40;54.10;;;;;;5098315;28;20068;-72
2022/03/07 05:09:05;;;;;;;38.97;16.23;;;20.30;54.00;;;;;;5098865;28;20029;-72
2022/03/07 05:11:31;;;;;;;23.75;15.38;;;20.50;54.10;;;;;;5098885;28;20104;-72
2022/03/07 05:13:57;;;;;;;22.77;13.88;;;20.50;54.00;;;;;;5096193;28;20063;-72
2022/03/07 05:16:23;;;;;;;28.23;14.52;;;20.40;54.00;;;;;;5096622;28;20049;-73
2022/03/07 05:18:49;;;;;;;38.13;19.25;;;20.50;54.00;;;;;;5092974;28;20043;-72
2022/03/07 05:21:16;;;;;;;24.02;15.35;;;20.50;53.90;;;;;;5109858;28;20040;-72
2022/03/07 05:23:42;;;;;;;29.20;16.42;;;20.50;53.80;;;;;;5119114;28;20036;-72
2022/03/07 05:26:09;;;;;;;35.08;18.02;;;20.50;53.70;;;;;;5100968;28;20040;-72
2022/03/07 05:28:35;;;;;;;33.33;17.95;;;20.60;53.70;;;;;;5096918;28;20052;-73
2022/03/07 05:31:01;;;;;;;26.92;15.07;;;20.60;53.80;;;;;;5098581;28;20131;-72
2022/03/07 05:33:27;;;;;;;23.13;13.77;;;20.50;53.60;;;;;;5097903;28;20079;-73
2022/03/07 05:35:54;;;;;;;23.42;15.65;;;20.50;53.90;;;;;;5098258;28;20043;-72
2022/03/07 05:38:20;;;;;;;21.92;13.90;;;20.50;53.70;;;;;;5115038;28;20043;-72
2022/03/07 05:40:46;;;;;;;22.63;14.38;;;20.50;53.80;;;;;;5097783;28;20104;-72
2022/03/07 05:43:13;;;;;;;30.83;16.83;;;20.50;54.00;;;;;;5098101;28;20032;-73
2022/03/07 05:45:39;;;;;;;34.03;16.88;;;20.40;54.00;;;;;;5090604;28;20045;-73
2022/03/07 05:48:05;;;;;;;33.65;18.95;;;20.40;54.10;;;;;;5113156;28;20418;-72
2022/03/07 05:50:32;;;;;;;32.65;19.88;;;20.30;54.30;;;;;;5117254;28;20040;-72
2022/03/07 05:52:58;;;;;;;28.50;18.27;;;20.30;54.40;;;;;;5097192;28;20039;-72
2022/03/07 05:55:24;;;;;;;25.02;15.25;;;20.30;54.40;;;;;;5107439;28;20036;-73
2022/03/07 05:57:50;;;;;;;23.88;15.82;;;20.30;54.50;;;;;;5106516;28;20040;-72
2022/03/07 06:00:16;;;;;;;26.65;16.25;;;20.30;54.30;;;;;;5096271;28;20052;-72
2022/03/07 06:02:42;;;;;;;24.65;14.45;;;20.30;54.10;;;;;;5098280;28;20047;-73
2022/03/07 06:05:10;;;;;;;24.42;15.52;;;20.30;54.00;;;;;;5097461;28;20044;-72
2022/03/07 06:07:36;;;;;;;25.63;15.07;;;20.30;53.80;;;;;;5097339;28;20053;-72
2022/03/07 06:10:03;;;;;;;21.42;14.07;;;20.40;53.80;;;;;;5097751;28;20055;-73
2022/03/07 06:12:29;;;;;;;29.05;16.65;;;20.50;53.80;;;;;;5096220;28;20044;-72
2022/03/07 06:14:55;;;;;;;31.08;17.20;;;20.40;53.60;;;;;;5086608;28;20041;-72
2022/03/07 06:17:21;;;;;;;30.35;17.33;;;20.30;53.60;;;;;;5096194;28;20100;-72
2022/03/07 06:19:47;;;;;;;26.67;17.35;;;20.40;53.60;;;;;;5095144;28;20040;-73
2022/03/07 06:22:13;;;;;;;28.23;16.88;;;20.40;53.60;;;;;;5097514;28;20154;-72
2022/03/07 06:24:39;;;;;;;26.60;16.10;;;20.50;53.60;;;;;;5080480;28;20040;-73
2022/03/07 06:27:06;;;;;;;33.38;18.17;;;20.40;53.50;;;;;;5088070;28;20044;-71
2022/03/07 06:29:32;;;;;;;33.47;19.75;;;20.50;53.60;;;;;;5094766;28;20180;-71
2022/03/07 06:31:59;;;;;;;31.35;18.02;;;20.40;53.70;;;;;;5095339;28;20047;-72
2022/03/07 06:34:25;;;;;;;17.48;10.50;;;20.30;54.80;;;;;;5096634;28;20051;-71
2022/03/07 06:36:51;;;;;;;12.40;8.40;;;20.30;45.80;;;;;;5095867;28;20044;-71
2022/03/07 06:39:18;;;;;;;12.98;6.78;;;20.40;43.90;;;;;;5096430;28;20069;-71
2022/03/07 06:41:45;;;;;;;11.57;7.80;;;20.40;43.10;;;;;;5095582;28;20051;-71
2022/03/07 06:44:11;;;;;;;12.43;6.72;;;20.50;42.30;;;;;;5096557;28;20052;-71
2022/03/07 06:46:37;;;;;;;9.27;6.35;;;20.60;42.70;;;;;;5096372;28;20048;-71
2022/03/07 06:49:03;;;;;;;9.95;7.05;;;20.70;42.50;;;;;;5096552;28;20041;-71
2022/03/07 06:51:30;;;;;;;9.93;6.25;;;20.80;42.10;;;;;;5096145;28;20044;-71
2022/03/07 06:53:56;;;;;;;13.77;8.30;;;20.90;42.00;;;;;;5094685;28;20043;-71
2022/03/07 06:56:22;;;;;;;10.02;6.50;;;21.00;41.30;;;;;;5087584;28;20064;-71
2022/03/07 06:58:48;;;;;;;9.73;6.22;;;21.00;38.80;;;;;;5096120;28;20086;-71
2022/03/07 07:01:14;;;;;;;14.60;7.80;;;21.20;39.90;;;;;;5095706;28;20076;-72
2022/03/07 07:03:40;;;;;;;9.52;6.10;;;21.20;39.70;;;;;;5094407;28;20040;-71
2022/03/07 07:06:06;;;;;;;13.20;8.63;;;21.20;39.90;;;;;;5094778;28;20111;-72
2022/03/07 07:08:33;;;;;;;13.02;6.90;;;21.20;38.80;;;;;;5096320;28;20130;-71
2022/03/07 07:10:59;;;;;;;10.73;7.68;;;21.30;40.70;;;;;;5095813;28;20100;-73
2022/03/07 07:13:25;;;;;;;13.52;7.82;;;21.30;39.60;;;;;;5090988;28;20048;-72
2022/03/07 07:15:55;;;;;;;10.60;6.20;;;21.40;40.20;;;;;;5095990;28;20037;-72
2022/03/07 07:18:25;;;;;;;15.77;9.70;;;21.30;37.10;;;;;;5091030;28;20112;-72
2022/03/07 07:20:52;;;;;;;16.52;11.02;;;21.20;37.70;;;;;;5094365;28;20103;-72
2022/03/07 07:23:20;;;;;;;14.73;10.95;;;21.40;37.70;;;;;;5078802;28;20071;-72
2022/03/07 07:25:46;;;;;;;19.92;10.88;;;21.60;52.40;;;;;;5096177;28;20231;-72
2022/03/07 07:28:13;;;;;;;18.23;11.00;;;21.50;55.10;;;;;;5093889;28;20040;-73
2022/03/07 07:30:40;;;;;;;15.88;10.68;;;21.50;57.30;;;;;;5095193;28;20056;-73
2022/03/07 07:33:06;;;;;;;17.38;10.23;;;21.50;56.60;;;;;;5099792;28;20063;-75
2022/03/07 07:35:34;;;;;;;14.52;8.98;;;21.60;55.40;;;;;;5095291;28;20036;-75
2022/03/07 07:38:01;;;;;;;19.25;10.32;;;21.70;54.40;;;;;;5093932;28;20075;-73
2022/03/07 07:40:28;;;;;;;15.60;10.48;;;21.80;53.50;;;;;;5095522;28;20049;-75
2022/03/07 07:42:54;;;;;;;21.10;10.88;;;21.80;52.80;;;;;;5092870;28;20052;-74
2022/03/07 07:45:20;;;;;;;12.60;8.27;;;21.90;52.10;;;;;;5077732;28;20104;-75
2022/03/07 07:47:46;;;;;;;18.77;9.02;;;22.00;51.20;;;;;;5095594;28;20062;-75
2022/03/07 07:50:12;;;;;;;16.27;9.35;;;21.90;50.00;;;;;;5095470;28;20046;-74
2022/03/07 07:52:38;;;;;;;16.02;10.18;;;22.00;48.50;;;;;;5095367;28;20032;-76
2022/03/07 07:55:05;;;;;;;19.75;12.27;;;22.00;47.30;;;;;;5097288;28;20048;-71
2022/03/07 07:57:32;;;;;;;7.72;4.82;;;22.00;46.60;;;;;;5083315;28;20049;-70
2022/03/07 07:59:58;;;;;;;5.90;3.03;;;22.10;46.10;;;;;;5078346;28;20055;-71
2022/03/07 08:02:24;;;;;;;15.60;8.45;;;22.00;46.30;;;;;;5091175;28;20040;-72
2022/03/07 08:04:51;;;;;;;15.32;7.00;;;22.10;40.70;;;;;;5094379;28;20066;-70
2022/03/07 08:07:18;;;;;;;16.67;11.48;;;22.20;40.20;;;;;;5088579;28;20040;-72
2022/03/07 08:09:45;;;;;;;13.65;9.25;;;22.40;34.90;;;;;;5087723;28;20131;-72
2022/03/07 08:12:11;;;;;;;14.27;8.85;;;22.40;35.50;;;;;;5093726;28;20044;-74
2022/03/07 08:14:37;;;;;;;15.60;9.70;;;22.60;36.90;;;;;;5094686;28;20034;-71
2022/03/07 08:17:05;;;;;;;14.98;9.60;;;22.50;34.50;;;;;;5095001;28;20036;-73
2022/03/07 08:19:31;;;;;;;14.93;9.35;;;22.70;46.70;;;;;;5095503;28;20051;-73
2022/03/07 08:21:58;;;;;;;17.75;9.93;;;22.60;47.30;;;;;;5095323;28;20032;-72
2022/03/07 08:24:25;;;;;;;14.93;9.10;;;22.40;47.80;;;;;;5093636;28;20043;-73
2022/03/07 08:26:51;;;;;;;12.95;7.07;;;22.40;48.60;;;;;;5084974;28;20664;-72
2022/03/07 08:29:17;;;;;;;12.57;5.45;;;22.30;48.60;;;;;;5095147;28;20041;-70
2022/03/07 08:31:44;;;;;;;13.70;8.95;;;22.40;38.60;;;;;;5094229;28;20067;-72
2022/03/07 08:34:10;;;;;;;10.05;6.43;;;22.50;37.00;;;;;;5093665;28;20051;-76
2022/03/07 08:36:36;;;;;;;10.05;5.90;;;22.80;35.10;;;;;;5094728;28;20036;-73
2022/03/07 08:39:03;;;;;;;7.53;5.70;;;22.70;32.10;;;;;;5094498;28;20036;-72
2022/03/07 08:41:29;;;;;;;10.73;6.65;;;22.70;31.00;;;;;;5095227;28;20044;-72
2022/03/07 08:43:56;;;;;;;10.80;7.82;;;22.70;30.30;;;;;;5093557;28;20082;-74
2022/03/07 08:46:22;;;;;;;12.30;7.88;;;22.70;31.80;;;;;;5089130;28;20068;-74
2022/03/07 08:48:48;;;;;;;11.48;7.13;;;22.70;28.80;;;;;;5095083;28;20040;-74
2022/03/07 08:51:15;;;;;;;13.32;9.20;;;22.70;29.80;;;;;;5094385;28;20070;-76
2022/03/07 08:53:42;;;;;;;12.05;8.45;;;22.70;39.80;;;;;;5091481;28;20039;-76
2022/03/07 08:56:08;;;;;;;11.55;8.60;;;22.60;45.80;;;;;;5094651;28;20041;-75
2022/03/07 08:58:34;;;;;;;13.10;7.95;;;22.60;47.40;;;;;;5093439;28;20051;-74
2022/03/07 09:01:01;;;;;;;13.73;8.85;;;22.40;48.00;;;;;;5094704;28;20062;-75
2022/03/07 09:03:27;;;;;;;16.58;8.35;;;22.50;49.60;;;;;;5094753;28;20048;-73
2022/03/07 09:05:53;;;;;;;14.45;9.13;;;22.30;50.20;;;;;;5094546;28;20071;-73
2022/03/07 09:08:19;;;;;;;16.90;10.07;;;22.40;50.90;;;;;;5094315;28;20074;-74
2022/03/07 09:10:46;;;;;;;13.75;8.55;;;22.30;52.00;;;;;;5094220;28;20041;-75
2022/03/07 09:13:12;;;;;;;10.80;7.85;;;22.10;52.50;;;;;;5085829;28;20041;-73
2022/03/07 09:15:38;;;;;;;13.80;8.52;;;22.10;53.10;;;;;;5091093;28;20045;-73
2022/03/07 09:18:04;;;;;;;13.48;8.43;;;22.00;52.40;;;;;;5097955;28;20054;-74
2022/03/07 09:20:30;;;;;;;14.70;9.38;;;22.00;52.80;;;;;;5097414;28;20064;-73
2022/03/07 09:22:57;;;;;;;16.27;9.32;;;22.00;52.90;;;;;;5098286;28;20048;-74
2022/03/07 09:25:23;;;;;;;16.70;8.77;;;22.10;53.40;;;;;;5098139;28;20104;-73
2022/03/07 09:27:50;;;;;;;17.23;10.23;;;22.20;53.80;;;;;;5096164;28;20040;-72
2022/03/07 09:30:16;;;;;;;16.08;10.13;;;22.20;53.90;;;;;;5097978;28;20174;-73
2022/03/07 09:32:42;;;;;;;13.05;8.65;;;22.10;55.00;;;;;;5080707;28;20059;-74
2022/03/07 09:35:09;;;;;;;12.90;7.90;;;22.10;56.80;;;;;;5097219;28;20040;-73
2022/03/07 09:37:35;;;;;;;9.48;6.75;;;22.00;59.40;;;;;;5094239;28;20078;-71
2022/03/07 09:40:03;;;;;;;10.48;7.43;;;22.10;61.00;;;;;;5099009;28;20087;-72
2022/03/07 09:42:29;;;;;;;22.65;12.45;;;22.10;59.50;;;;;;5093002;28;20041;-71
2022/03/07 09:44:55;;;;;;;17.67;9.68;;;22.10;58.90;;;;;;5097733;28;20063;-72
2022/03/07 09:47:22;;;;;;;9.45;5.68;;;22.10;59.10;;;;;;5097466;28;20055;-72
2022/03/07 09:49:50;;;;;;;9.93;6.57;;;22.10;60.30;;;;;;5097320;28;20116;-72
2022/03/07 09:52:16;;;;;;;13.10;8.05;;;22.20;59.30;;;;;;5098004;28;20036;-71
2022/03/07 09:54:43;;;;;;;9.75;6.95;;;22.10;58.40;;;;;;5098084;28;20043;-71
2022/03/07 09:57:09;;;;;;;10.43;7.07;;;22.20;57.90;;;;;;5096865;28;20028;-72
2022/03/07 09:59:35;;;;;;;9.45;6.63;;;22.10;57.70;;;;;;5097480;28;20050;-74
2022/03/07 10:02:09;;;;;;;9.20;5.53;;;22.10;57.80;;;;;;5096947;28;20103;-72
2022/03/07 10:04:44;;;;;;;9.10;6.50;;;22.00;57.70;;;;;;5097377;28;20047;-72
2022/03/07 10:07:11;;;;;;;7.82;6.07;;;21.90;58.20;;;;;;5097079;28;20075;-73
2022/03/07 10:09:37;;;;;;;6.70;5.30;;;21.90;58.40;;;;;;5097164;28;20071;-73
2022/03/07 10:12:05;;;;;;;9.18;5.97;;;21.90;58.50;;;;;;5095111;28;20058;-73
2022/03/07 10:14:42;;;;;;;13.00;7.45;;;21.90;58.20;;;;;;5097305;28;20036;-72
2022/03/07 10:17:18;;;;;;;17.83;9.05;;;21.90;58.10;;;;;;5094731;28;20100;-75
2022/03/07 10:19:45;;;;;;;24.05;11.90;;;21.80;58.20;;;;;;5097364;28;20040;-72
2022/03/07 10:22:27;;;;;;;8.35;5.72;;;21.80;57.80;;;;;;5108599;28;20043;-70
2022/03/07 10:25:05;;;;;;;7.55;4.55;;;21.60;51.40;;;;;;5086220;28;20062;-70
2022/03/07 10:27:34;;;;;;;7.28;4.05;;;21.90;38.50;;;;;;5094892;28;20082;-69
2022/03/07 10:30:02;;;;;;;5.97;4.10;;;22.20;38.60;;;;;;5096239;28;20044;-69
2022/03/07 10:32:28;;;;;;;10.30;4.15;;;22.20;38.40;;;;;;5096834;28;20048;-70
2022/03/07 10:34:54;;;;;;;8.95;3.97;;;22.40;37.40;;;;;;5096145;28;20111;-70
2022/03/07 10:37:38;;;;;;;5.88;4.18;;;22.50;36.70;;;;;;5096318;28;20040;-71
2022/03/07 10:40:21;;;;;;;5.57;4.07;;;22.60;41.70;;;;;;5096296;28;20040;-71
2022/03/07 10:42:49;;;;;;;10.25;6.10;;;22.70;38.00;;;;;;5097272;28;20054;-70
2022/03/07 10:45:15;;;;;;;5.55;3.65;;;22.80;39.00;;;;;;5096404;28;20040;-71
2022/03/07 10:47:42;;;;;;;9.13;6.57;;;22.80;40.90;;;;;;5099884;28;20036;-69
2022/03/07 10:50:09;;;;;;;6.43;4.30;;;22.80;38.00;;;;;;5096883;28;20048;-71
2022/03/07 10:52:42;;;;;;;8.90;4.97;;;22.80;37.70;;;;;;5095022;28;20037;-69
2022/03/07 10:55:10;;;;;;;10.75;5.65;;;22.90;38.00;;;;;;5095669;28;20051;-70
2022/03/07 10:57:39;;;;;;;6.03;3.95;;;23.00;36.60;;;;;;5096106;28;20052;-71
2022/03/07 11:00:17;;;;;;;6.07;4.20;;;23.00;36.30;;;;;;5095884;28;20057;-71
2022/03/07 11:02:45;;;;;;;5.45;3.85;;;23.00;40.40;;;;;;5095912;28;20108;-70
2022/03/07 11:05:13;;;;;;;7.20;3.42;;;23.00;37.80;;;;;;5095573;28;20052;-70
2022/03/07 11:07:47;;;;;;;7.60;4.28;;;23.10;46.20;;;;;;5095426;28;20052;-71
2022/03/07 11:10:14;;;;;;;5.65;4.28;;;23.40;41.30;;;;;;5093042;28;20048;-70
2022/03/07 11:12:40;;;;;;;6.45;4.07;;;23.50;41.70;;;;;;5083905;28;20041;-69
2022/03/07 11:15:12;;;;;;;7.45;4.97;;;23.50;38.40;;;;;;5094382;28;20058;-69
2022/03/07 11:17:41;;;;;;;14.77;6.10;;;23.50;36.00;;;;;;5079709;28;20043;-70
2022/03/07 11:20:12;;;;;;;12.80;7.93;;;23.30;33.60;;;;;;5095631;28;20070;-71
2022/03/07 11:22:38;;;;;;;16.00;8.20;;;23.20;46.20;;;;;;5096291;28;20044;-71
2022/03/07 11:25:07;;;;;;;17.25;8.43;;;23.50;49.60;;;;;;5095423;28;20044;-71
2022/03/07 11:27:36;;;;;;;15.18;9.55;;;23.50;50.00;;;;;;5092819;28;20051;-70
2022/03/07 11:30:34;;;;;;;11.13;7.43;;;23.50;50.10;;;;;;5099511;28;20112;-71
2022/03/07 11:33:07;;;;;;;16.50;8.13;;;23.50;50.90;;;;;;5072756;28;20055;-72
2022/03/07 11:35:34;;;;;;;18.25;9.85;;;23.50;51.30;;;;;;5095778;28;20059;-72
2022/03/07 11:38:15;;;;;;;17.13;9.50;;;23.30;51.50;;;;;;5096053;28;20040;-72
2022/03/07 11:41:06;;;;;;;12.20;8.00;;;23.30;52.10;;;;;;5091616;28;20059;-71
2022/03/07 11:43:35;;;;;;;12.90;7.97;;;23.30;52.40;;;;;;5096172;28;20071;-72
2022/03/07 11:46:06;;;;;;;14.88;7.93;;;23.20;52.80;;;;;;5095868;28;20048;-73
2022/03/07 11:48:47;;;;;;;15.43;9.05;;;23.20;53.60;;;;;;5095748;28;20041;-71
2022/03/07 11:51:23;;;;;;;14.38;8.38;;;23.10;54.30;;;;;;5095942;28;20108;-74
2022/03/07 11:53:53;;;;;;;15.75;8.70;;;23.00;55.10;;;;;;5095459;28;20036;-74
2022/03/07 11:56:26;;;;;;;15.50;8.93;;;22.80;55.40;;;;;;5094640;28;20044;-71
2022/03/07 11:58:53;;;;;;;;;;;22.80;55.10;;;;;;5095847;28;20036;-70
2022/03/07 12:01:23;;;;;;;13.75;8.43;;;22.80;55.60;;;;;;5084605;28;19916;-74
2022/03/07 12:03:50;;;;;;;18.73;9.20;;;22.70;55.60;;;;;;5094188;28;20044;-73
2022/03/07 12:06:18;;;;;;;15.52;7.70;;;22.60;55.50;;;;;;5094805;28;20040;-72
2022/03/07 12:08:56;;;;;;;13.93;9.23;;;22.70;58.40;;;;;;5093365;28;20051;-73
2022/03/07 12:11:29;;;;;;;11.32;8.32;;;22.90;59.90;;;;;;5093450;28;20067;-71
2022/03/07 12:14:08;;;;;;;16.30;8.48;;;22.70;58.00;;;;;;5091120;28;20049;-73
2022/03/07 12:16:41;;;;;;;13.75;7.95;;;22.80;57.80;;;;;;5094549;28;20055;-73
2022/03/07 12:19:22;;;;;;;9.70;7.60;;;22.70;56.10;;;;;;5096965;28;20047;-72
2022/03/07 12:21:49;;;;;;;25.55;13.73;;;22.60;56.10;;;;;;5098184;28;20075;-70
2022/03/07 12:24:18;;;;;;;29.80;15.82;;;22.60;57.00;;;;;;5090708;28;20045;-71
2022/03/07 12:26:49;;;;;;;20.45;14.07;;;22.60;56.60;;;;;;5093882;28;20043;-71
2022/03/07 12:29:17;;;;;;;18.27;10.82;;;22.60;56.80;;;;;;5094971;28;20040;-72
2022/03/07 12:31:56;;;;;;;14.98;10.20;;;22.60;55.10;;;;;;5094313;28;20053;-72
2022/03/07 12:34:27;;;;;;;14.20;9.15;;;22.60;56.40;;;;;;5094508;28;20028;-71